sensor_id;sensor_type;location;lat;lon;timestamp;P1;durP1;ratioP1;P2;durP2;ratioP2
51438;SDS011;38816;51.142;-0.974;2022-07-03T00:01:40;1.55;;;0.90;;
51438;SDS011;38816;51.142;-0.974;2022-07-03T00:04:06;1.92;;;1.10;;
51438;SDS011;38816;51.142;-0.974;2022-07-03T00:06:32;1.90;;;0.98;;
51438;SDS011;38816;51.142;-0.974;2022-07-03T00:08:58;2.00;;;0.90;;
51438;SDS011;38816;51.142;-0.974;2022-07-03T00:11:25;2.47;;;0.80;;
51438;SDS011;38816;51.142;-0.974;2022-07-03T00:13:51;4.00;;;0.90;;
51438;SDS011;38816;51.142;-0.974;2022-07-03T00:16:17;4.05;;;1.00;;
51438;SDS011;38816;51.142;-0.974;2022-07-03T00:18:42;1.98;;;1.00;;
51438;SDS011;38816;51.142;-0.974;2022-07-03T00:21:09;3.55;;;1.10;;
51438;SDS011;38816;51.142;-0.974;2022-07-03T00:23:40;2.72;;;0.90;;
51438;SDS011;38816;51.142;-0.974;2022-07-03T00:26:28;1.92;;;0.90;;
51438;SDS011;38816;51.142;-0.974;2022-07-03T00:28:57;3.42;;;0.70;;
51438;SDS011;38816;51.142;-0.974;2022-07-03T00:31:25;2.85;;;1.20;;
51438;SDS011;38816;51.142;-0.974;2022-07-03T00:33:59;3.28;;;0.90;;
51438;SDS011;38816;51.142;-0.974;2022-07-03T00:36:26;3.10;;;1.05;;
51438;SDS011;38816;51.142;-0.974;2022-07-03T00:38:59;2.78;;;1.10;;
51438;SDS011;38816;51.142;-0.974;2022-07-03T00:41:28;4.30;;;1.30;;
51438;SDS011;38816;51.142;-0.974;2022-07-03T00:43:59;2.35;;;1.00;;
51438;SDS011;38816;51.142;-0.974;2022-07-03T00:46:25;2.58;;;1.10;;
51438;SDS011;38816;51.142;-0.974;2022-07-03T00:48:52;1.80;;;1.08;;
51438;SDS011;38816;51.142;-0.974;2022-07-03T00:51:21;1.38;;;0.95;;
51438;SDS011;38816;51.142;-0.974;2022-07-03T00:53:51;5.43;;;1.10;;
51438;SDS011;38816;51.142;-0.974;2022-07-03T00:56:37;3.03;;;0.95;;
51438;SDS011;38816;51.142;-0.974;2022-07-03T00:59:05;2.88;;;1.00;;
51438;SDS011;38816;51.142;-0.974;2022-07-03T01:01:32;2.08;;;0.88;;
51438;SDS011;38816;51.142;-0.974;2022-07-03T01:09:23;2.17;;;1.15;;
51438;SDS011;38816;51.142;-0.974;2022-07-03T01:12:03;1.23;;;1.00;;
51438;SDS011;38816;51.142;-0.974;2022-07-03T01:14:47;2.75;;;1.00;;
51438;SDS011;38816;51.142;-0.974;2022-07-03T01:17:31;1.55;;;1.10;;
51438;SDS011;38816;51.142;-0.974;2022-07-03T01:20:03;3.47;;;1.40;;
51438;SDS011;38816;51.142;-0.974;2022-07-03T01:22:42;1.70;;;1.20;;
51438;SDS011;38816;51.142;-0.974;2022-07-03T01:25:44;3.53;;;1.20;;
51438;SDS011;38816;51.142;-0.974;2022-07-03T01:28:07;11.75;;;1.35;;
51438;SDS011;38816;51.142;-0.974;2022-07-03T01:30:42;2.80;;;1.48;;
51438;SDS011;38816;51.142;-0.974;2022-07-03T01:33:22;2.58;;;1.15;;
51438;SDS011;38816;51.142;-0.974;2022-07-03T01:36:02;3.88;;;1.20;;
51438;SDS011;38816;51.142;-0.974;2022-07-03T01:38:38;5.75;;;1.27;;
51438;SDS011;38816;51.142;-0.974;2022-07-03T01:41:06;3.60;;;1.30;;
51438;SDS011;38816;51.142;-0.974;2022-07-03T01:43:41;2.88;;;1.13;;
51438;SDS011;38816;51.142;-0.974;2022-07-03T01:46:11;8.50;;;1.25;;
51438;SDS011;38816;51.142;-0.974;2022-07-03T01:48:38;3.95;;;1.50;;
51438;SDS011;38816;51.142;-0.974;2022-07-03T01:51:07;4.15;;;1.40;;
51438;SDS011;38816;51.142;-0.974;2022-07-03T01:53:37;11.43;;;1.63;;
51438;SDS011;38816;51.142;-0.974;2022-07-03T01:56:10;6.43;;;1.40;;
51438;SDS011;38816;51.142;-0.974;2022-07-03T01:58:36;6.32;;;1.30;;
51438;SDS011;38816;51.142;-0.974;2022-07-03T02:09:17;6.78;;;1.52;;
51438;SDS011;38816;51.142;-0.974;2022-07-03T02:11:48;9.80;;;1.80;;
51438;SDS011;38816;51.142;-0.974;2022-07-03T02:14:14;7.93;;;1.80;;
51438;SDS011;38816;51.142;-0.974;2022-07-03T02:22:25;3.80;;;1.50;;
51438;SDS011;38816;51.142;-0.974;2022-07-03T02:24:53;5.50;;;1.63;;
51438;SDS011;38816;51.142;-0.974;2022-07-03T02:27:25;3.88;;;1.52;;
51438;SDS011;38816;51.142;-0.974;2022-07-03T02:29:56;4.70;;;1.42;;
51438;SDS011;38816;51.142;-0.974;2022-07-03T02:32:28;4.75;;;1.35;;
51438;SDS011;38816;51.142;-0.974;2022-07-03T02:35:04;5.53;;;1.40;;
51438;SDS011;38816;51.142;-0.974;2022-07-03T02:43:38;6.90;;;1.20;;
51438;SDS011;38816;51.142;-0.974;2022-07-03T02:51:44;4.55;;;1.20;;
51438;SDS011;38816;51.142;-0.974;2022-07-03T02:54:15;4.38;;;1.15;;
51438;SDS011;38816;51.142;-0.974;2022-07-03T02:56:54;5.32;;;1.75;;
51438;SDS011;38816;51.142;-0.974;2022-07-03T02:59:52;3.03;;;1.20;;
51438;SDS011;38816;51.142;-0.974;2022-07-03T03:04:49;4.63;;;1.13;;
51438;SDS011;38816;51.142;-0.974;2022-07-03T03:07:35;3.05;;;1.30;;
51438;SDS011;38816;51.142;-0.974;2022-07-03T03:10:24;4.47;;;1.30;;
51438;SDS011;38816;51.142;-0.974;2022-07-03T03:13:11;3.65;;;1.20;;
51438;SDS011;38816;51.142;-0.974;2022-07-03T03:15:37;3.72;;;1.05;;
51438;SDS011;38816;51.142;-0.974;2022-07-03T03:18:05;6.63;;;1.23;;
51438;SDS011;38816;51.142;-0.974;2022-07-03T03:20:36;4.72;;;1.38;;
51438;SDS011;38816;51.142;-0.974;2022-07-03T03:25:34;4.55;;;1.73;;
51438;SDS011;38816;51.142;-0.974;2022-07-03T03:28:00;5.40;;;1.70;;
51438;SDS011;38816;51.142;-0.974;2022-07-03T03:30:26;3.97;;;1.50;;
51438;SDS011;38816;51.142;-0.974;2022-07-03T03:32:52;6.50;;;2.20;;
51438;SDS011;38816;51.142;-0.974;2022-07-03T03:35:18;4.57;;;1.88;;
51438;SDS011;38816;51.142;-0.974;2022-07-03T03:37:44;4.53;;;1.63;;
51438;SDS011;38816;51.142;-0.974;2022-07-03T03:40:10;6.28;;;1.65;;
51438;SDS011;38816;51.142;-0.974;2022-07-03T03:42:37;5.20;;;2.30;;
51438;SDS011;38816;51.142;-0.974;2022-07-03T03:45:02;5.00;;;2.05;;
51438;SDS011;38816;51.142;-0.974;2022-07-03T03:47:28;3.83;;;1.85;;
51438;SDS011;38816;51.142;-0.974;2022-07-03T03:49:54;3.10;;;1.80;;
51438;SDS011;38816;51.142;-0.974;2022-07-03T03:52:20;8.82;;;1.67;;
51438;SDS011;38816;51.142;-0.974;2022-07-03T03:54:46;4.65;;;1.80;;
51438;SDS011;38816;51.142;-0.974;2022-07-03T03:57:21;12.02;;;1.80;;
51438;SDS011;38816;51.142;-0.974;2022-07-03T03:59:47;4.03;;;1.67;;
51438;SDS011;38816;51.142;-0.974;2022-07-03T04:02:14;7.15;;;2.03;;
51438;SDS011;38816;51.142;-0.974;2022-07-03T04:04:40;8.15;;;1.80;;
51438;SDS011;38816;51.142;-0.974;2022-07-03T04:07:05;9.00;;;2.10;;
51438;SDS011;38816;51.142;-0.974;2022-07-03T04:09:31;8.63;;;1.67;;
51438;SDS011;38816;51.142;-0.974;2022-07-03T04:11:56;6.53;;;1.75;;
51438;SDS011;38816;51.142;-0.974;2022-07-03T04:14:22;3.95;;;1.58;;
51438;SDS011;38816;51.142;-0.974;2022-07-03T04:16:48;8.93;;;1.83;;
51438;SDS011;38816;51.142;-0.974;2022-07-03T04:19:14;6.07;;;1.80;;
51438;SDS011;38816;51.142;-0.974;2022-07-03T04:21:39;6.68;;;1.88;;
51438;SDS011;38816;51.142;-0.974;2022-07-03T04:24:05;5.15;;;1.70;;
51438;SDS011;38816;51.142;-0.974;2022-07-03T04:26:31;4.53;;;1.75;;
51438;SDS011;38816;51.142;-0.974;2022-07-03T04:28:56;8.60;;;1.80;;
51438;SDS011;38816;51.142;-0.974;2022-07-03T04:31:22;10.15;;;1.70;;
51438;SDS011;38816;51.142;-0.974;2022-07-03T04:33:47;7.78;;;1.40;;
51438;SDS011;38816;51.142;-0.974;2022-07-03T04:36:13;3.70;;;1.48;;
51438;SDS011;38816;51.142;-0.974;2022-07-03T04:38:38;6.05;;;1.50;;
51438;SDS011;38816;51.142;-0.974;2022-07-03T04:41:04;11.32;;;1.65;;
51438;SDS011;38816;51.142;-0.974;2022-07-03T04:43:29;6.32;;;1.30;;
51438;SDS011;38816;51.142;-0.974;2022-07-03T04:45:55;6.63;;;1.33;;
51438;SDS011;38816;51.142;-0.974;2022-07-03T04:48:20;4.82;;;1.38;;
51438;SDS011;38816;51.142;-0.974;2022-07-03T04:50:46;7.35;;;1.50;;
51438;SDS011;38816;51.142;-0.974;2022-07-03T04:53:11;14.88;;;2.00;;
51438;SDS011;38816;51.142;-0.974;2022-07-03T04:55:37;7.07;;;1.42;;
51438;SDS011;38816;51.142;-0.974;2022-07-03T04:58:02;4.97;;;1.20;;
51438;SDS011;38816;51.142;-0.974;2022-07-03T05:00:28;9.15;;;1.23;;
51438;SDS011;38816;51.142;-0.974;2022-07-03T05:02:53;2.63;;;1.30;;
51438;SDS011;38816;51.142;-0.974;2022-07-03T05:05:19;7.72;;;1.63;;
51438;SDS011;38816;51.142;-0.974;2022-07-03T05:07:44;7.43;;;1.77;;
51438;SDS011;38816;51.142;-0.974;2022-07-03T05:10:10;9.18;;;1.77;;
51438;SDS011;38816;51.142;-0.974;2022-07-03T05:12:36;9.25;;;1.80;;
51438;SDS011;38816;51.142;-0.974;2022-07-03T05:15:01;7.28;;;1.75;;
51438;SDS011;38816;51.142;-0.974;2022-07-03T05:17:27;10.43;;;1.77;;
51438;SDS011;38816;51.142;-0.974;2022-07-03T05:19:52;8.80;;;1.38;;
51438;SDS011;38816;51.142;-0.974;2022-07-03T05:22:38;7.80;;;1.52;;
51438;SDS011;38816;51.142;-0.974;2022-07-03T05:25:03;9.30;;;1.73;;
51438;SDS011;38816;51.142;-0.974;2022-07-03T05:27:29;8.95;;;1.30;;
51438;SDS011;38816;51.142;-0.974;2022-07-03T05:29:55;5.45;;;1.60;;
51438;SDS011;38816;51.142;-0.974;2022-07-03T05:32:20;3.88;;;1.30;;
51438;SDS011;38816;51.142;-0.974;2022-07-03T05:34:45;8.20;;;1.45;;
51438;SDS011;38816;51.142;-0.974;2022-07-03T05:37:11;8.00;;;1.10;;
51438;SDS011;38816;51.142;-0.974;2022-07-03T05:39:36;8.18;;;1.17;;
51438;SDS011;38816;51.142;-0.974;2022-07-03T05:42:03;5.50;;;1.20;;
51438;SDS011;38816;51.142;-0.974;2022-07-03T05:44:29;2.90;;;0.80;;
51438;SDS011;38816;51.142;-0.974;2022-07-03T05:46:54;0.98;;;0.80;;
51438;SDS011;38816;51.142;-0.974;2022-07-03T05:49:20;7.53;;;1.10;;
51438;SDS011;38816;51.142;-0.974;2022-07-03T05:51:46;4.35;;;0.88;;
51438;SDS011;38816;51.142;-0.974;2022-07-03T05:54:11;4.40;;;1.00;;
51438;SDS011;38816;51.142;-0.974;2022-07-03T05:56:37;6.72;;;1.00;;
51438;SDS011;38816;51.142;-0.974;2022-07-03T05:59:02;3.90;;;0.80;;
51438;SDS011;38816;51.142;-0.974;2022-07-03T06:01:27;9.80;;;1.30;;
51438;SDS011;38816;51.142;-0.974;2022-07-03T06:03:53;5.10;;;1.17;;
51438;SDS011;38816;51.142;-0.974;2022-07-03T06:06:18;6.28;;;1.40;;
51438;SDS011;38816;51.142;-0.974;2022-07-03T06:08:44;5.05;;;1.17;;
51438;SDS011;38816;51.142;-0.974;2022-07-03T06:11:09;4.35;;;1.00;;
51438;SDS011;38816;51.142;-0.974;2022-07-03T06:13:34;2.67;;;0.88;;
51438;SDS011;38816;51.142;-0.974;2022-07-03T06:16:00;3.40;;;0.90;;
51438;SDS011;38816;51.142;-0.974;2022-07-03T06:18:25;8.57;;;1.00;;
51438;SDS011;38816;51.142;-0.974;2022-07-03T06:20:51;5.50;;;1.10;;
51438;SDS011;38816;51.142;-0.974;2022-07-03T06:23:16;6.00;;;1.25;;
51438;SDS011;38816;51.142;-0.974;2022-07-03T06:25:42;4.20;;;0.88;;
51438;SDS011;38816;51.142;-0.974;2022-07-03T06:28:07;4.80;;;1.02;;
51438;SDS011;38816;51.142;-0.974;2022-07-03T06:30:32;4.32;;;0.90;;
51438;SDS011;38816;51.142;-0.974;2022-07-03T06:32:58;4.47;;;1.05;;
51438;SDS011;38816;51.142;-0.974;2022-07-03T06:35:23;5.57;;;0.93;;
51438;SDS011;38816;51.142;-0.974;2022-07-03T06:37:49;3.78;;;1.00;;
51438;SDS011;38816;51.142;-0.974;2022-07-03T06:40:14;3.40;;;0.88;;
51438;SDS011;38816;51.142;-0.974;2022-07-03T06:42:40;4.93;;;1.23;;
51438;SDS011;38816;51.142;-0.974;2022-07-03T06:45:05;5.35;;;0.90;;
51438;SDS011;38816;51.142;-0.974;2022-07-03T06:47:35;4.75;;;1.15;;
51438;SDS011;38816;51.142;-0.974;2022-07-03T06:50:02;3.70;;;1.20;;
51438;SDS011;38816;51.142;-0.974;2022-07-03T06:52:27;7.32;;;1.15;;
51438;SDS011;38816;51.142;-0.974;2022-07-03T06:54:53;5.05;;;1.20;;
51438;SDS011;38816;51.142;-0.974;2022-07-03T06:57:18;5.90;;;1.13;;
51438;SDS011;38816;51.142;-0.974;2022-07-03T06:59:44;4.47;;;1.00;;
51438;SDS011;38816;51.142;-0.974;2022-07-03T07:02:09;6.80;;;1.13;;
51438;SDS011;38816;51.142;-0.974;2022-07-03T07:04:34;4.13;;;1.52;;
51438;SDS011;38816;51.142;-0.974;2022-07-03T07:07:00;6.70;;;1.10;;
51438;SDS011;38816;51.142;-0.974;2022-07-03T07:09:25;6.63;;;1.00;;
51438;SDS011;38816;51.142;-0.974;2022-07-03T07:11:51;4.65;;;1.00;;
51438;SDS011;38816;51.142;-0.974;2022-07-03T07:14:17;4.68;;;0.90;;
51438;SDS011;38816;51.142;-0.974;2022-07-03T07:16:42;3.50;;;0.98;;
51438;SDS011;38816;51.142;-0.974;2022-07-03T07:19:08;4.85;;;1.27;;
51438;SDS011;38816;51.142;-0.974;2022-07-03T07:21:33;5.25;;;0.90;;
51438;SDS011;38816;51.142;-0.974;2022-07-03T07:23:59;4.78;;;0.90;;
51438;SDS011;38816;51.142;-0.974;2022-07-03T07:26:24;3.80;;;1.10;;
51438;SDS011;38816;51.142;-0.974;2022-07-03T07:28:49;4.40;;;1.05;;
51438;SDS011;38816;51.142;-0.974;2022-07-03T07:31:15;1.65;;;0.60;;
51438;SDS011;38816;51.142;-0.974;2022-07-03T07:33:40;4.93;;;1.13;;
51438;SDS011;38816;51.142;-0.974;2022-07-03T07:36:06;4.22;;;1.00;;
51438;SDS011;38816;51.142;-0.974;2022-07-03T07:38:31;2.92;;;0.77;;
51438;SDS011;38816;51.142;-0.974;2022-07-03T07:40:59;5.88;;;0.95;;
51438;SDS011;38816;51.142;-0.974;2022-07-03T07:43:24;2.00;;;0.70;;
51438;SDS011;38816;51.142;-0.974;2022-07-03T07:45:49;3.00;;;0.90;;
51438;SDS011;38816;51.142;-0.974;2022-07-03T07:48:15;5.00;;;1.00;;
51438;SDS011;38816;51.142;-0.974;2022-07-03T07:50:43;4.55;;;1.08;;
51438;SDS011;38816;51.142;-0.974;2022-07-03T07:53:08;10.55;;;1.08;;
51438;SDS011;38816;51.142;-0.974;2022-07-03T07:55:34;3.95;;;0.95;;
51438;SDS011;38816;51.142;-0.974;2022-07-03T07:57:59;4.65;;;1.10;;
51438;SDS011;38816;51.142;-0.974;2022-07-03T08:00:25;3.85;;;0.95;;
51438;SDS011;38816;51.142;-0.974;2022-07-03T08:02:50;7.50;;;1.00;;
51438;SDS011;38816;51.142;-0.974;2022-07-03T08:05:34;3.60;;;0.80;;
51438;SDS011;38816;51.142;-0.974;2022-07-03T08:08:00;3.97;;;1.00;;
51438;SDS011;38816;51.142;-0.974;2022-07-03T08:10:46;2.40;;;1.08;;
51438;SDS011;38816;51.142;-0.974;2022-07-03T08:13:15;3.00;;;0.95;;
51438;SDS011;38816;51.142;-0.974;2022-07-03T08:15:42;4.40;;;0.82;;
51438;SDS011;38816;51.142;-0.974;2022-07-03T08:18:09;3.72;;;0.90;;
51438;SDS011;38816;51.142;-0.974;2022-07-03T08:20:35;4.43;;;0.85;;
51438;SDS011;38816;51.142;-0.974;2022-07-03T08:23:02;3.28;;;1.00;;
51438;SDS011;38816;51.142;-0.974;2022-07-03T08:25:27;1.83;;;0.88;;
51438;SDS011;38816;51.142;-0.974;2022-07-03T08:27:54;6.85;;;0.88;;
51438;SDS011;38816;51.142;-0.974;2022-07-03T08:30:20;8.82;;;0.93;;
51438;SDS011;38816;51.142;-0.974;2022-07-03T08:32:46;4.43;;;0.77;;
51438;SDS011;38816;51.142;-0.974;2022-07-03T08:35:13;6.15;;;0.80;;
51438;SDS011;38816;51.142;-0.974;2022-07-03T08:37:38;2.30;;;0.77;;
51438;SDS011;38816;51.142;-0.974;2022-07-03T08:40:08;3.25;;;0.90;;
51438;SDS011;38816;51.142;-0.974;2022-07-03T08:42:38;5.88;;;1.00;;
51438;SDS011;38816;51.142;-0.974;2022-07-03T08:45:13;7.45;;;1.30;;
51438;SDS011;38816;51.142;-0.974;2022-07-03T08:47:43;2.42;;;0.70;;
51438;SDS011;38816;51.142;-0.974;2022-07-03T08:50:13;4.00;;;1.00;;
51438;SDS011;38816;51.142;-0.974;2022-07-03T08:52:40;3.45;;;1.00;;
51438;SDS011;38816;51.142;-0.974;2022-07-03T08:55:07;7.78;;;0.93;;
51438;SDS011;38816;51.142;-0.974;2022-07-03T08:57:35;2.65;;;0.77;;
51438;SDS011;38816;51.142;-0.974;2022-07-03T09:00:03;4.32;;;1.08;;
51438;SDS011;38816;51.142;-0.974;2022-07-03T09:02:31;8.68;;;0.90;;
51438;SDS011;38816;51.142;-0.974;2022-07-03T09:04:57;3.40;;;0.73;;
51438;SDS011;38816;51.142;-0.974;2022-07-03T09:07:27;3.55;;;0.82;;
51438;SDS011;38816;51.142;-0.974;2022-07-03T09:10:01;2.85;;;0.70;;
51438;SDS011;38816;51.142;-0.974;2022-07-03T09:12:31;2.28;;;0.70;;
51438;SDS011;38816;51.142;-0.974;2022-07-03T09:14:57;2.80;;;0.60;;
51438;SDS011;38816;51.142;-0.974;2022-07-03T09:17:27;1.40;;;0.68;;
51438;SDS011;38816;51.142;-0.974;2022-07-03T09:19:53;2.38;;;0.77;;
51438;SDS011;38816;51.142;-0.974;2022-07-03T09:22:19;2.85;;;0.70;;
51438;SDS011;38816;51.142;-0.974;2022-07-03T09:24:49;4.38;;;0.90;;
51438;SDS011;38816;51.142;-0.974;2022-07-03T09:27:21;2.28;;;0.70;;
51438;SDS011;38816;51.142;-0.974;2022-07-03T09:29:51;3.13;;;0.75;;
51438;SDS011;38816;51.142;-0.974;2022-07-03T09:32:24;5.30;;;0.80;;
51438;SDS011;38816;51.142;-0.974;2022-07-03T09:35:01;3.03;;;0.77;;
51438;SDS011;38816;51.142;-0.974;2022-07-03T09:37:38;2.22;;;0.60;;
51438;SDS011;38816;51.142;-0.974;2022-07-03T09:40:05;2.40;;;0.50;;
51438;SDS011;38816;51.142;-0.974;2022-07-03T09:42:31;2.08;;;0.60;;
51438;SDS011;38816;51.142;-0.974;2022-07-03T09:44:56;4.38;;;1.00;;
51438;SDS011;38816;51.142;-0.974;2022-07-03T09:47:22;1.00;;;0.60;;
51438;SDS011;38816;51.142;-0.974;2022-07-03T09:49:56;1.85;;;0.50;;
51438;SDS011;38816;51.142;-0.974;2022-07-03T09:52:28;3.38;;;0.80;;
51438;SDS011;38816;51.142;-0.974;2022-07-03T09:57:35;3.03;;;0.60;;
51438;SDS011;38816;51.142;-0.974;2022-07-03T10:00:20;1.42;;;0.68;;
51438;SDS011;38816;51.142;-0.974;2022-07-03T10:02:55;3.80;;;0.70;;
51438;SDS011;38816;51.142;-0.974;2022-07-03T10:05:37;3.42;;;0.80;;
51438;SDS011;38816;51.142;-0.974;2022-07-03T10:08:07;1.83;;;0.52;;
51438;SDS011;38816;51.142;-0.974;2022-07-03T10:10:46;2.70;;;0.63;;
51438;SDS011;38816;51.142;-0.974;2022-07-03T10:13:13;2.17;;;0.82;;
51438;SDS011;38816;51.142;-0.974;2022-07-03T10:15:39;3.67;;;0.60;;
51438;SDS011;38816;51.142;-0.974;2022-07-03T10:18:07;2.03;;;0.70;;
51438;SDS011;38816;51.142;-0.974;2022-07-03T10:23:10;2.75;;;0.70;;
51438;SDS011;38816;51.142;-0.974;2022-07-03T10:25:36;2.33;;;0.65;;
51438;SDS011;38816;51.142;-0.974;2022-07-03T10:28:05;2.83;;;0.68;;
51438;SDS011;38816;51.142;-0.974;2022-07-03T10:30:31;1.45;;;0.55;;
51438;SDS011;38816;51.142;-0.974;2022-07-03T10:32:57;1.25;;;0.47;;
51438;SDS011;38816;51.142;-0.974;2022-07-03T10:35:33;1.42;;;0.50;;
51438;SDS011;38816;51.142;-0.974;2022-07-03T10:40:29;4.15;;;0.47;;
51438;SDS011;38816;51.142;-0.974;2022-07-03T10:43:21;3.13;;;0.60;;
51438;SDS011;38816;51.142;-0.974;2022-07-03T10:46:12;3.03;;;0.65;;
51438;SDS011;38816;51.142;-0.974;2022-07-03T10:51:20;1.55;;;0.55;;
51438;SDS011;38816;51.142;-0.974;2022-07-03T10:53:46;2.33;;;0.70;;
51438;SDS011;38816;51.142;-0.974;2022-07-03T10:56:12;2.72;;;0.68;;
51438;SDS011;38816;51.142;-0.974;2022-07-03T10:58:58;1.25;;;0.50;;
51438;SDS011;38816;51.142;-0.974;2022-07-03T11:01:25;3.53;;;0.90;;
51438;SDS011;38816;51.142;-0.974;2022-07-03T11:03:54;0.98;;;0.60;;
51438;SDS011;38816;51.142;-0.974;2022-07-03T11:09:11;2.78;;;0.60;;
51438;SDS011;38816;51.142;-0.974;2022-07-03T11:11:44;3.08;;;0.70;;
51438;SDS011;38816;51.142;-0.974;2022-07-03T11:14:21;1.42;;;0.60;;
51438;SDS011;38816;51.142;-0.974;2022-07-03T11:16:48;2.00;;;0.65;;
51438;SDS011;38816;51.142;-0.974;2022-07-03T11:19:14;2.33;;;0.77;;
51438;SDS011;38816;51.142;-0.974;2022-07-03T11:21:50;1.17;;;0.50;;
51438;SDS011;38816;51.142;-0.974;2022-07-03T11:24:35;1.42;;;0.50;;
51438;SDS011;38816;51.142;-0.974;2022-07-03T11:29:39;1.73;;;0.40;;
51438;SDS011;38816;51.142;-0.974;2022-07-03T11:33:06;3.22;;;0.90;;
51438;SDS011;38816;51.142;-0.974;2022-07-03T11:38:29;1.38;;;0.68;;
51438;SDS011;38816;51.142;-0.974;2022-07-03T11:40:56;1.65;;;0.60;;
51438;SDS011;38816;51.142;-0.974;2022-07-03T11:43:23;5.78;;;0.93;;
51438;SDS011;38816;51.142;-0.974;2022-07-03T11:45:49;1.35;;;0.63;;
51438;SDS011;38816;51.142;-0.974;2022-07-03T11:50:44;1.35;;;0.70;;
51438;SDS011;38816;51.142;-0.974;2022-07-03T11:53:20;1.15;;;0.57;;
51438;SDS011;38816;51.142;-0.974;2022-07-03T11:58:45;0.82;;;0.50;;
51438;SDS011;38816;51.142;-0.974;2022-07-03T12:03:46;2.05;;;0.60;;
51438;SDS011;38816;51.142;-0.974;2022-07-03T12:06:12;3.85;;;0.75;;
51438;SDS011;38816;51.142;-0.974;2022-07-03T12:08:38;1.48;;;0.65;;
51438;SDS011;38816;51.142;-0.974;2022-07-03T12:11:07;2.03;;;0.55;;
51438;SDS011;38816;51.142;-0.974;2022-07-03T12:13:34;1.17;;;0.45;;
51438;SDS011;38816;51.142;-0.974;2022-07-03T12:16:04;0.98;;;0.52;;
51438;SDS011;38816;51.142;-0.974;2022-07-03T12:21:37;0.63;;;0.50;;
51438;SDS011;38816;51.142;-0.974;2022-07-03T12:24:13;2.53;;;0.60;;
51438;SDS011;38816;51.142;-0.974;2022-07-03T12:26:39;1.10;;;0.50;;
51438;SDS011;38816;51.142;-0.974;2022-07-03T12:29:12;1.27;;;0.80;;
51438;SDS011;38816;51.142;-0.974;2022-07-03T12:31:43;1.15;;;0.65;;
51438;SDS011;38816;51.142;-0.974;2022-07-03T12:34:10;1.40;;;0.45;;
51438;SDS011;38816;51.142;-0.974;2022-07-03T12:36:36;0.30;;;0.30;;
51438;SDS011;38816;51.142;-0.974;2022-07-03T12:39:02;2.33;;;0.50;;
51438;SDS011;38816;51.142;-0.974;2022-07-03T12:41:28;0.70;;;0.60;;
51438;SDS011;38816;51.142;-0.974;2022-07-03T12:43:54;1.75;;;0.70;;
51438;SDS011;38816;51.142;-0.974;2022-07-03T12:46:23;2.30;;;0.60;;
51438;SDS011;38816;51.142;-0.974;2022-07-03T12:48:54;2.15;;;0.93;;
51438;SDS011;38816;51.142;-0.974;2022-07-03T12:54:12;0.90;;;0.50;;
51438;SDS011;38816;51.142;-0.974;2022-07-03T12:56:46;2.05;;;0.70;;
51438;SDS011;38816;51.142;-0.974;2022-07-03T13:00:06;1.95;;;0.75;;
51438;SDS011;38816;51.142;-0.974;2022-07-03T13:02:42;1.40;;;0.80;;
51438;SDS011;38816;51.142;-0.974;2022-07-03T13:05:17;0.93;;;0.60;;
51438;SDS011;38816;51.142;-0.974;2022-07-03T13:07:44;3.33;;;0.70;;
51438;SDS011;38816;51.142;-0.974;2022-07-03T13:10:12;1.63;;;0.70;;
51438;SDS011;38816;51.142;-0.974;2022-07-03T13:12:50;0.75;;;0.57;;
51438;SDS011;38816;51.142;-0.974;2022-07-03T13:15:23;1.15;;;0.60;;
51438;SDS011;38816;51.142;-0.974;2022-07-03T13:20:19;0.68;;;0.50;;
51438;SDS011;38816;51.142;-0.974;2022-07-03T13:22:48;1.25;;;0.88;;
51438;SDS011;38816;51.142;-0.974;2022-07-03T13:25:14;2.30;;;0.68;;
51438;SDS011;38816;51.142;-0.974;2022-07-03T13:27:40;2.10;;;0.50;;
51438;SDS011;38816;51.142;-0.974;2022-07-03T13:30:05;1.98;;;0.60;;
51438;SDS011;38816;51.142;-0.974;2022-07-03T13:32:31;1.65;;;0.60;;
51438;SDS011;38816;51.142;-0.974;2022-07-03T13:34:56;2.83;;;0.82;;
51438;SDS011;38816;51.142;-0.974;2022-07-03T13:37:22;2.03;;;0.60;;
51438;SDS011;38816;51.142;-0.974;2022-07-03T13:39:47;1.23;;;0.80;;
51438;SDS011;38816;51.142;-0.974;2022-07-03T13:42:13;0.85;;;0.50;;
51438;SDS011;38816;51.142;-0.974;2022-07-03T13:44:39;1.25;;;0.50;;
51438;SDS011;38816;51.142;-0.974;2022-07-03T13:47:05;0.93;;;0.50;;
51438;SDS011;38816;51.142;-0.974;2022-07-03T13:49:31;1.17;;;0.60;;
51438;SDS011;38816;51.142;-0.974;2022-07-03T13:51:57;1.08;;;0.60;;
51438;SDS011;38816;51.142;-0.974;2022-07-03T13:54:22;1.23;;;0.55;;
51438;SDS011;38816;51.142;-0.974;2022-07-03T13:56:48;0.85;;;0.60;;
51438;SDS011;38816;51.142;-0.974;2022-07-03T13:59:14;2.25;;;0.90;;
51438;SDS011;38816;51.142;-0.974;2022-07-03T14:01:39;2.92;;;1.08;;
51438;SDS011;38816;51.142;-0.974;2022-07-03T14:04:05;3.47;;;1.00;;
51438;SDS011;38816;51.142;-0.974;2022-07-03T14:06:31;2.70;;;0.68;;
51438;SDS011;38816;51.142;-0.974;2022-07-03T14:08:56;2.38;;;0.93;;
51438;SDS011;38816;51.142;-0.974;2022-07-03T14:11:21;3.13;;;1.15;;
51438;SDS011;38816;51.142;-0.974;2022-07-03T14:13:47;1.67;;;0.65;;
51438;SDS011;38816;51.142;-0.974;2022-07-03T14:16:13;3.33;;;0.82;;
51438;SDS011;38816;51.142;-0.974;2022-07-03T14:18:39;2.25;;;0.82;;
51438;SDS011;38816;51.142;-0.974;2022-07-03T14:21:04;3.85;;;1.05;;
51438;SDS011;38816;51.142;-0.974;2022-07-03T14:23:31;3.20;;;0.95;;
51438;SDS011;38816;51.142;-0.974;2022-07-03T14:25:57;2.80;;;1.00;;
51438;SDS011;38816;51.142;-0.974;2022-07-03T14:28:24;4.40;;;1.17;;
51438;SDS011;38816;51.142;-0.974;2022-07-03T14:31:08;4.32;;;0.95;;
51438;SDS011;38816;51.142;-0.974;2022-07-03T14:33:46;5.90;;;1.05;;
51438;SDS011;38816;51.142;-0.974;2022-07-03T14:36:12;4.57;;;1.00;;
51438;SDS011;38816;51.142;-0.974;2022-07-03T14:38:37;6.78;;;1.00;;
51438;SDS011;38816;51.142;-0.974;2022-07-03T14:41:03;3.25;;;0.90;;
51438;SDS011;38816;51.142;-0.974;2022-07-03T14:43:28;1.95;;;0.90;;
51438;SDS011;38816;51.142;-0.974;2022-07-03T14:45:54;3.60;;;0.70;;
51438;SDS011;38816;51.142;-0.974;2022-07-03T14:48:19;1.65;;;0.73;;
51438;SDS011;38816;51.142;-0.974;2022-07-03T14:50:45;2.13;;;0.80;;
51438;SDS011;38816;51.142;-0.974;2022-07-03T14:53:11;3.13;;;0.77;;
51438;SDS011;38816;51.142;-0.974;2022-07-03T14:55:38;1.80;;;0.70;;
51438;SDS011;38816;51.142;-0.974;2022-07-03T15:00:33;1.83;;;0.82;;
51438;SDS011;38816;51.142;-0.974;2022-07-03T15:03:05;3.00;;;0.65;;
51438;SDS011;38816;51.142;-0.974;2022-07-03T15:05:32;1.85;;;0.70;;
51438;SDS011;38816;51.142;-0.974;2022-07-03T15:10:39;1.60;;;0.95;;
51438;SDS011;38816;51.142;-0.974;2022-07-03T15:13:05;2.17;;;0.70;;
51438;SDS011;38816;51.142;-0.974;2022-07-03T15:15:31;1.42;;;0.57;;
51438;SDS011;38816;51.142;-0.974;2022-07-03T15:17:58;2.42;;;0.70;;
51438;SDS011;38816;51.142;-0.974;2022-07-03T15:20:31;1.25;;;0.73;;
51438;SDS011;38816;51.142;-0.974;2022-07-03T15:23:03;2.00;;;0.50;;
51438;SDS011;38816;51.142;-0.974;2022-07-03T15:25:31;1.67;;;0.65;;
51438;SDS011;38816;51.142;-0.974;2022-07-03T15:27:58;1.05;;;0.68;;
51438;SDS011;38816;51.142;-0.974;2022-07-03T15:30:24;3.00;;;0.65;;
51438;SDS011;38816;51.142;-0.974;2022-07-03T15:32:50;0.50;;;0.50;;
51438;SDS011;38816;51.142;-0.974;2022-07-03T15:35:17;1.33;;;0.50;;
51438;SDS011;38816;51.142;-0.974;2022-07-03T15:53:43;1.33;;;0.50;;
51438;SDS011;38816;51.142;-0.974;2022-07-03T15:56:11;0.52;;;0.50;;
51438;SDS011;38816;51.142;-0.974;2022-07-03T15:58:44;2.65;;;0.45;;
51438;SDS011;38816;51.142;-0.974;2022-07-03T16:01:14;3.95;;;0.68;;
51438;SDS011;38816;51.142;-0.974;2022-07-03T16:04:02;1.55;;;0.98;;
51438;SDS011;38816;51.142;-0.974;2022-07-03T16:06:28;2.53;;;0.82;;
51438;SDS011;38816;51.142;-0.974;2022-07-03T16:08:55;0.68;;;0.60;;
51438;SDS011;38816;51.142;-0.974;2022-07-03T16:11:21;0.88;;;0.70;;
51438;SDS011;38816;51.142;-0.974;2022-07-03T16:13:47;1.20;;;0.75;;
51438;SDS011;38816;51.142;-0.974;2022-07-03T16:16:16;1.63;;;0.85;;